createdAt,value
2022-10-14T00:00:13.805Z,12.60
2022-10-14T00:02:42.177Z,10.93
2022-10-14T00:05:10.948Z,11.27
2022-10-14T00:07:39.151Z,11.67
2022-10-14T00:10:09.175Z,11.87
2022-10-14T00:12:36.937Z,11.47
2022-10-14T00:15:05.778Z,12.53
2022-10-14T00:17:33.617Z,11.63
2022-10-14T00:20:01.707Z,11.03
2022-10-14T00:22:29.511Z,12.23
2022-10-14T00:24:57.428Z,11.90
2022-10-14T00:27:26.729Z,11.93
2022-10-14T00:29:54.915Z,11.27
2022-10-14T00:32:22.788Z,12.07
2022-10-14T00:34:50.687Z,11.47
2022-10-14T00:37:18.621Z,12.10
2022-10-14T00:39:46.620Z,12.10
2022-10-14T00:42:15.966Z,11.40
2022-10-14T00:45:12.644Z,12.13
2022-10-14T00:47:41.747Z,11.87
2022-10-14T00:50:11.324Z,10.20
2022-10-14T00:52:39.500Z,11.63
2022-10-14T00:55:11.316Z,11.73
2022-10-14T00:57:39.960Z,11.83
2022-10-14T01:00:11.421Z,11.07
2022-10-14T01:02:39.744Z,11.73
2022-10-14T01:05:10.938Z,12.33
2022-10-14T01:07:45.798Z,12.17
2022-10-14T01:10:21.104Z,12.30
2022-10-14T01:13:02.612Z,11.10
2022-10-14T01:15:39.799Z,11.30
2022-10-14T01:18:21.265Z,11.60
2022-10-14T01:21:16.888Z,12.03
2022-10-14T01:24:12.342Z,12.87
2022-10-14T01:27:11.805Z,11.83
2022-10-14T01:30:10.549Z,11.83
2022-10-14T01:32:47.192Z,12.67
2022-10-14T01:35:25.816Z,12.90
2022-10-14T01:37:58.110Z,13.27
2022-10-14T01:40:33.619Z,13.50
2022-10-14T01:43:04.398Z,13.40
2022-10-14T01:45:37.750Z,12.67
2022-10-14T01:48:07.335Z,12.47
2022-10-14T01:50:37.915Z,13.17
2022-10-14T01:53:09.372Z,12.70
2022-10-14T01:55:41.474Z,12.33
2022-10-14T01:58:11.666Z,12.97
2022-10-14T02:00:41.164Z,12.57
2022-10-14T02:03:10.131Z,12.30
2022-10-14T02:05:43.135Z,12.53
2022-10-14T02:08:14.396Z,13.27
2022-10-14T02:11:02.227Z,12.53
2022-10-14T02:13:44.061Z,13.37
2022-10-14T02:16:23.073Z,12.97
2022-10-14T02:18:55.533Z,13.27
2022-10-14T02:21:29.782Z,12.43
2022-10-14T02:24:03.134Z,13.03
2022-10-14T02:26:32.374Z,12.80
2022-10-14T02:29:02.626Z,12.63
2022-10-14T02:31:33.755Z,12.53
2022-10-14T02:34:05.771Z,12.73
2022-10-14T02:36:35.620Z,12.93
2022-10-14T02:39:05.057Z,12.23
2022-10-14T02:41:37.397Z,13.53
2022-10-14T02:44:06.477Z,12.50
2022-10-14T02:46:36.324Z,13.17
2022-10-14T02:49:04.247Z,11.73
2022-10-14T02:51:31.986Z,11.20
2022-10-14T02:54:01.547Z,12.17
2022-10-14T02:56:29.445Z,11.30
2022-10-14T02:58:57.243Z,11.53
2022-10-14T03:01:25.015Z,10.93
2022-10-14T03:03:54.256Z,10.97
2022-10-14T03:06:22.125Z,10.93
2022-10-14T03:08:49.954Z,11.30
2022-10-14T03:11:18.093Z,11.20
2022-10-14T03:13:45.954Z,11.60
2022-10-14T03:16:13.749Z,11.20
2022-10-14T03:18:41.517Z,11.13
2022-10-14T03:21:10.706Z,11.63
2022-10-14T03:23:38.524Z,11.73
2022-10-14T03:26:09.536Z,11.93
2022-10-14T03:28:39.696Z,11.80
2022-10-14T03:31:07.548Z,11.97
2022-10-14T03:33:35.301Z,12.90
2022-10-14T03:36:03.173Z,13.50
2022-10-14T03:38:32.317Z,13.47
2022-10-14T03:41:00.101Z,13.80
2022-10-14T03:43:28.518Z,13.27
2022-10-14T03:45:56.276Z,14.30
2022-10-14T03:48:24.089Z,14.00
2022-10-14T03:50:51.893Z,13.83
2022-10-14T03:53:20.155Z,13.80
2022-10-14T03:55:49.288Z,13.70
2022-10-14T03:58:17.090Z,13.57
2022-10-14T04:00:44.920Z,12.93
2022-10-14T04:03:12.742Z,13.90
2022-10-14T04:05:40.559Z,13.17
2022-10-14T04:08:08.811Z,13.13
2022-10-14T04:10:36.654Z,13.57
2022-10-14T04:13:05.909Z,12.83
2022-10-14T04:15:33.738Z,12.60
2022-10-14T04:18:01.499Z,13.63
2022-10-14T04:20:29.363Z,12.87
2022-10-14T04:23:00.724Z,13.47
2022-10-14T04:25:28.618Z,13.07
2022-10-14T04:27:56.370Z,13.67
2022-10-14T04:30:25.519Z,12.97
2022-10-14T04:32:53.287Z,12.93
2022-10-14T04:35:21.039Z,12.97
2022-10-14T04:37:48.823Z,12.93
2022-10-14T04:40:16.722Z,12.63
2022-10-14T04:42:44.471Z,12.50
2022-10-14T04:45:12.352Z,12.67
2022-10-14T04:47:46.162Z,12.87
2022-10-14T04:50:16.391Z,12.87
2022-10-14T04:52:44.143Z,11.90
2022-10-14T04:55:12.731Z,12.27
2022-10-14T04:57:43.288Z,12.63
2022-10-14T05:00:13.153Z,12.03
2022-10-14T05:02:42.281Z,13.60
2022-10-14T05:05:10.487Z,11.90
2022-10-14T05:07:38.270Z,12.10
2022-10-14T05:10:06.908Z,11.83
2022-10-14T05:12:35.097Z,11.07
2022-10-14T05:15:05.333Z,11.43
2022-10-14T05:17:33.234Z,10.63
2022-10-14T05:20:02.611Z,11.50
2022-10-14T05:22:30.394Z,11.20
2022-10-14T05:24:58.141Z,10.60
2022-10-14T05:27:25.970Z,11.73
2022-10-14T05:29:53.803Z,10.43
2022-10-14T05:32:22.578Z,11.13
2022-10-14T05:34:50.692Z,9.80
2022-10-14T05:37:19.838Z,9.87
2022-10-14T05:39:47.656Z,9.90
2022-10-14T05:42:15.434Z,9.77
2022-10-14T05:44:43.339Z,10.27
2022-10-14T05:47:11.418Z,9.57
2022-10-14T05:49:39.211Z,10.07
2022-10-14T05:52:07.006Z,9.10
2022-10-14T05:54:36.182Z,9.97
2022-10-14T05:57:03.967Z,9.33
2022-10-14T05:59:33.361Z,9.07
2022-10-14T06:02:01.471Z,9.97
2022-10-14T06:04:29.185Z,10.00
2022-10-14T06:06:57.073Z,10.13
2022-10-14T06:09:24.850Z,9.57
2022-10-14T06:11:53.985Z,9.50
2022-10-14T06:14:21.814Z,9.47
2022-10-14T06:16:52.022Z,9.97
2022-10-14T06:19:19.908Z,10.27
2022-10-14T06:21:47.646Z,10.00
2022-10-14T06:24:15.839Z,9.33
2022-10-14T06:26:43.589Z,9.40
2022-10-14T06:29:13.297Z,9.30
2022-10-14T06:31:41.130Z,10.03
2022-10-14T06:34:09.522Z,10.10
2022-10-14T06:36:37.903Z,8.70
2022-10-14T06:39:05.956Z,8.87
2022-10-14T06:41:34.284Z,8.87
2022-10-14T06:44:02.143Z,8.63
2022-10-14T06:46:31.506Z,8.37
2022-10-14T06:48:59.269Z,9.07
2022-10-14T06:51:27.073Z,7.97
2022-10-14T06:53:55.072Z,8.53
2022-10-14T06:56:22.894Z,8.90
2022-10-14T06:58:54.745Z,8.97
2022-10-14T07:01:23.613Z,8.17
2022-10-14T07:03:55.802Z,7.90
2022-10-14T07:06:24.640Z,8.40
2022-10-14T07:08:52.442Z,7.90
2022-10-14T07:11:20.217Z,7.43
2022-10-14T07:13:47.945Z,7.03
2022-10-14T07:16:15.820Z,7.10
2022-10-14T07:18:43.783Z,6.50
2022-10-14T07:21:16.030Z,7.37
2022-10-14T07:23:43.802Z,7.07
2022-10-14T07:26:11.575Z,6.67
2022-10-14T07:28:39.409Z,6.10
2022-10-14T07:31:09.600Z,5.67
2022-10-14T07:33:39.418Z,6.07
2022-10-14T07:36:10.851Z,5.60
2022-10-14T07:38:40.725Z,5.70
2022-10-14T07:41:16.885Z,5.50
2022-10-14T07:43:45.680Z,5.97
2022-10-14T07:46:14.650Z,5.60
2022-10-14T07:48:56.556Z,5.80
2022-10-14T07:51:25.652Z,5.73
2022-10-14T07:53:55.213Z,8.30
2022-10-14T07:56:23.595Z,4.93
2022-10-14T07:58:51.627Z,5.17
2022-10-14T08:01:20.170Z,5.40
2022-10-14T08:03:49.454Z,4.80
2022-10-14T08:06:17.912Z,5.30
2022-10-14T08:08:46.674Z,4.83
2022-10-14T08:11:17.968Z,5.40
2022-10-14T08:13:46.744Z,5.47
2022-10-14T08:16:16.937Z,5.50
2022-10-14T08:18:45.177Z,5.43
2022-10-14T08:21:13.389Z,4.70
2022-10-14T08:23:41.305Z,5.10
2022-10-14T08:26:21.212Z,4.90
2022-10-14T08:28:49.434Z,5.33
2022-10-14T08:31:17.989Z,5.07
2022-10-14T08:33:46.017Z,4.87
2022-10-14T08:36:14.067Z,4.93
2022-10-14T08:38:41.876Z,5.90
2022-10-14T08:41:26.089Z,5.10
2022-10-14T08:44:02.819Z,4.53
2022-10-14T08:46:37.893Z,4.40
2022-10-14T08:49:13.470Z,5.40
2022-10-14T08:51:45.097Z,4.60
2022-10-14T08:54:17.154Z,4.80
2022-10-14T08:56:46.652Z,3.77
2022-10-14T08:59:17.023Z,3.73
2022-10-14T09:01:52.724Z,3.70
2022-10-14T09:04:21.425Z,3.60
2022-10-14T09:06:52.343Z,3.47
2022-10-14T09:09:26.157Z,3.60
2022-10-14T09:12:00.693Z,3.70
2022-10-14T09:14:37.227Z,3.70
2022-10-14T09:19:42.987Z,3.20
2022-10-14T09:22:15.404Z,3.17
2022-10-14T09:24:46.253Z,2.97
2022-10-14T09:27:18.598Z,3.17
2022-10-14T09:29:49.717Z,2.70
2022-10-14T09:32:29.521Z,2.90
2022-10-14T09:34:59.098Z,2.90
2022-10-14T09:37:28.957Z,2.57
2022-10-14T09:40:00.784Z,2.83
2022-10-14T09:42:41.996Z,2.43
2022-10-14T09:45:12.962Z,2.37
2022-10-14T09:47:47.425Z,2.67
2022-10-14T09:50:23.544Z,2.83
2022-10-14T09:52:56.588Z,2.13
2022-10-14T09:55:25.521Z,2.50
2022-10-14T09:58:17.449Z,2.87
2022-10-14T10:00:46.927Z,2.50
2022-10-14T10:03:26.950Z,2.50
2022-10-14T10:06:04.008Z,2.67
2022-10-14T10:08:32.684Z,2.57
2022-10-14T10:11:06.927Z,2.50
2022-10-14T10:13:44.904Z,2.57
2022-10-14T10:16:24.817Z,2.37
2022-10-14T10:18:55.526Z,2.33
2022-10-14T10:21:26.055Z,2.60
2022-10-14T10:23:56.945Z,2.40
2022-10-14T10:26:28.326Z,2.20
2022-10-14T10:28:58.757Z,2.50
2022-10-14T10:31:55.668Z,2.37
2022-10-14T10:34:48.143Z,2.47
2022-10-14T10:37:28.726Z,2.10
2022-10-14T10:40:18.393Z,2.27
2022-10-14T10:42:56.785Z,2.20
2022-10-14T10:45:38.032Z,2.40
2022-10-14T10:48:12.977Z,2.33
2022-10-14T10:50:48.650Z,2.53
2022-10-14T10:53:29.504Z,2.47
2022-10-14T10:56:10.914Z,2.67
2022-10-14T10:58:44.267Z,2.50
2022-10-14T11:01:26.344Z,2.40
2022-10-14T11:04:08.135Z,2.50
2022-10-14T11:07:03.769Z,2.87
2022-10-14T11:10:00.063Z,2.63
2022-10-14T11:12:34.302Z,3.00
2022-10-14T11:15:27.750Z,3.10
2022-10-14T11:18:02.825Z,3.10
2022-10-14T11:20:39.412Z,2.80
2022-10-14T11:23:34.783Z,2.93
2022-10-14T11:26:12.947Z,3.00
2022-10-14T11:28:47.484Z,2.93
2022-10-14T11:31:27.927Z,3.17
2022-10-14T11:34:10.664Z,2.90
2022-10-14T11:36:46.018Z,3.40
2022-10-14T11:39:29.603Z,3.53
2022-10-14T11:42:11.339Z,3.80
2022-10-14T11:44:40.449Z,3.70
2022-10-14T11:47:16.143Z,4.30
2022-10-14T11:49:49.777Z,4.70
2022-10-14T11:52:24.578Z,4.47
2022-10-14T11:54:56.703Z,4.67
2022-10-14T11:57:32.799Z,4.57
2022-10-14T12:00:03.492Z,4.60
2022-10-14T12:02:42.003Z,4.10
2022-10-14T12:05:18.252Z,4.40
2022-10-14T12:07:50.999Z,5.30
2022-10-14T12:10:26.862Z,5.10
2022-10-14T12:12:56.765Z,5.00
2022-10-14T12:15:27.807Z,5.23
2022-10-14T12:17:58.983Z,4.60
2022-10-14T12:20:35.346Z,5.07
2022-10-14T12:23:06.191Z,5.60
2022-10-14T12:25:41.450Z,5.70
2022-10-14T12:28:13.384Z,5.83
2022-10-14T12:30:42.986Z,5.77
2022-10-14T12:33:12.681Z,5.70
2022-10-14T12:35:51.738Z,5.67
2022-10-14T12:38:20.814Z,6.13
2022-10-14T12:40:49.520Z,6.10
2022-10-14T12:43:23.522Z,5.30
2022-10-14T12:46:15.605Z,5.07
2022-10-14T12:48:50.778Z,5.60
2022-10-14T12:51:23.068Z,5.30
2022-10-14T12:54:08.647Z,5.30
2022-10-14T12:56:40.330Z,5.20
2022-10-14T12:59:10.275Z,5.20
2022-10-14T13:01:38.670Z,5.13
2022-10-14T13:04:19.990Z,5.30
2022-10-14T13:07:46.396Z,5.23
2022-10-14T13:10:47.266Z,5.47
2022-10-14T13:13:53.368Z,5.33
2022-10-14T13:16:57.168Z,6.30
2022-10-14T13:19:47.037Z,6.20
2022-10-14T13:22:40.089Z,6.03
2022-10-14T13:25:15.418Z,5.43
2022-10-14T13:28:12.417Z,6.70
2022-10-14T13:30:52.374Z,6.03
2022-10-14T13:33:26.399Z,6.23
2022-10-14T13:36:05.573Z,5.97
2022-10-14T13:38:35.965Z,7.23
2022-10-14T13:41:04.877Z,6.63
2022-10-14T13:43:38.934Z,6.97
2022-10-14T13:46:11.152Z,17.03
2022-10-14T13:48:41.576Z,8.10
2022-10-14T13:51:36.712Z,7.27
2022-10-14T13:54:17.698Z,6.93
2022-10-14T13:56:45.720Z,7.10
2022-10-14T13:59:43.172Z,6.87
2022-10-14T14:02:16.480Z,7.57
2022-10-14T14:04:51.703Z,8.23
2022-10-14T14:08:08.419Z,8.63
2022-10-14T14:10:13.020Z,9.73
2022-10-14T14:12:43.777Z,10.77
2022-10-14T14:15:20.803Z,10.00
2022-10-14T14:17:48.635Z,9.13
2022-10-14T14:20:20.655Z,9.27
2022-10-14T14:22:48.472Z,10.07
2022-10-14T14:25:34.010Z,9.00
2022-10-14T14:28:05.818Z,9.53
2022-10-14T14:30:35.783Z,9.63
2022-10-14T14:33:06.050Z,9.97
2022-10-14T14:35:33.964Z,9.20
2022-10-14T14:38:01.980Z,9.97
2022-10-14T14:40:32.223Z,10.23
2022-10-14T14:43:02.019Z,10.70
2022-10-14T14:45:32.640Z,10.70
2022-10-14T14:48:07.523Z,9.67
2022-10-14T14:50:38.474Z,9.97
2022-10-14T14:53:12.841Z,10.67
2022-10-14T14:55:47.059Z,11.27
2022-10-14T14:58:27.414Z,10.70
2022-10-14T15:00:55.888Z,11.60
2022-10-14T15:03:24.907Z,11.63
2022-10-14T15:05:55.353Z,12.10
2022-10-14T15:08:25.302Z,11.53
2022-10-14T15:10:56.491Z,12.63
2022-10-14T15:13:33.594Z,11.80
2022-10-14T15:16:01.421Z,11.07
2022-10-14T15:18:30.477Z,12.27
2022-10-14T15:21:07.923Z,11.43
2022-10-14T15:23:45.928Z,12.10
2022-10-14T15:26:31.911Z,11.07
2022-10-14T15:29:13.952Z,11.37
2022-10-14T15:31:43.663Z,10.70
2022-10-14T15:34:20.018Z,11.50
2022-10-14T15:36:51.060Z,10.37
2022-10-14T15:39:18.929Z,9.47
2022-10-14T15:41:48.097Z,10.00
2022-10-14T15:44:16.385Z,10.53
2022-10-14T15:47:03.529Z,9.20
2022-10-14T15:49:36.016Z,10.17
2022-10-14T15:52:03.825Z,10.57
2022-10-14T15:54:31.711Z,10.10
2022-10-14T15:57:00.867Z,9.60
2022-10-14T15:59:28.706Z,10.43
2022-10-14T16:01:56.636Z,10.57
2022-10-14T16:04:27.778Z,10.33
2022-10-14T16:06:57.117Z,10.97
2022-10-14T16:09:27.720Z,10.30
2022-10-14T16:11:58.144Z,10.23
2022-10-14T16:14:28.000Z,9.90
2022-10-14T16:16:56.202Z,9.50
2022-10-14T16:19:24.152Z,10.77
2022-10-14T16:21:52.009Z,9.83
2022-10-14T16:24:21.677Z,9.17
2022-10-14T16:26:49.848Z,9.77
2022-10-14T16:29:18.166Z,9.83
2022-10-14T16:31:49.710Z,8.53
2022-10-14T16:34:17.790Z,9.07
2022-10-14T16:36:46.177Z,9.00
2022-10-14T16:39:14.379Z,9.60
2022-10-14T16:41:42.388Z,9.17
2022-10-14T16:44:24.727Z,8.93
2022-10-14T16:47:12.359Z,9.30
2022-10-14T16:49:40.969Z,8.70
2022-10-14T16:52:09.201Z,8.57
2022-10-14T16:54:37.256Z,7.77
2022-10-14T16:57:05.504Z,8.40
2022-10-14T16:59:33.951Z,8.43
2022-10-14T17:02:03.656Z,7.47
2022-10-14T17:04:31.446Z,8.07
2022-10-14T17:07:02.676Z,8.03
2022-10-14T17:09:30.480Z,7.50
2022-10-14T17:11:58.298Z,7.83
2022-10-14T17:14:27.100Z,7.50
2022-10-14T17:16:55.043Z,7.37
2022-10-14T17:19:24.776Z,7.70
2022-10-14T17:21:52.731Z,8.23
2022-10-14T17:24:20.661Z,8.10
2022-10-14T17:26:48.498Z,7.70
2022-10-14T17:29:16.262Z,7.33
2022-10-14T17:31:44.828Z,8.20
2022-10-14T17:34:12.642Z,7.90
2022-10-14T17:36:42.114Z,8.00
2022-10-14T17:39:18.746Z,7.87
2022-10-14T17:41:52.436Z,7.27
2022-10-14T17:44:20.462Z,7.33
2022-10-14T17:46:48.299Z,6.83
2022-10-14T17:49:16.107Z,6.40
2022-10-14T17:51:45.515Z,6.40
2022-10-14T17:54:13.659Z,6.50
2022-10-14T17:56:43.039Z,6.57
2022-10-14T17:59:14.306Z,6.30
2022-10-14T18:02:02.708Z,6.83
2022-10-14T18:04:30.429Z,7.30
2022-10-14T18:06:59.669Z,7.40
2022-10-14T18:09:27.502Z,7.27
2022-10-14T18:12:08.133Z,9.37
2022-10-14T18:14:36.867Z,9.10
2022-10-14T18:17:05.243Z,8.53
2022-10-14T18:19:33.266Z,8.40
2022-10-14T18:22:02.662Z,7.20
2022-10-14T18:24:30.447Z,7.57
2022-10-14T18:26:58.235Z,7.23
2022-10-14T18:29:26.247Z,8.97
2022-10-14T18:31:54.034Z,8.90
2022-10-14T18:34:22.384Z,12.57
2022-10-14T18:36:50.245Z,15.13
2022-10-14T18:39:20.279Z,11.87
2022-10-14T18:41:48.368Z,10.40
2022-10-14T18:44:16.375Z,11.83
2022-10-14T18:46:44.267Z,11.60
2022-10-14T18:49:12.944Z,8.60
2022-10-14T18:51:42.113Z,10.03
2022-10-14T18:54:13.861Z,10.60
2022-10-14T18:56:44.449Z,9.93
2022-10-14T18:59:15.182Z,9.87
2022-10-14T19:01:43.587Z,9.43
2022-10-14T19:04:13.980Z,9.43
2022-10-14T19:06:44.952Z,9.40
2022-10-14T19:09:13.852Z,9.00
2022-10-14T19:11:44.714Z,8.60
2022-10-14T19:14:14.341Z,9.33
2022-10-14T19:16:42.868Z,9.60
2022-10-14T19:19:15.270Z,9.30
2022-10-14T19:21:43.595Z,10.07
2022-10-14T19:24:12.773Z,9.40
2022-10-14T19:26:44.245Z,9.20
2022-10-14T19:29:14.553Z,10.17
2022-10-14T19:31:43.654Z,10.83
2022-10-14T19:34:14.319Z,10.47
2022-10-14T19:36:43.224Z,11.60
2022-10-14T19:39:14.156Z,9.50
2022-10-14T19:41:44.898Z,9.57
2022-10-14T19:44:14.123Z,9.57
2022-10-14T19:46:42.582Z,10.10
2022-10-14T19:49:13.116Z,10.40
2022-10-14T19:51:41.468Z,10.60
2022-10-14T19:54:11.629Z,10.90
2022-10-14T19:56:39.451Z,9.70
2022-10-14T19:59:09.130Z,9.90
2022-10-14T20:01:37.127Z,9.40
2022-10-14T20:04:05.013Z,10.10
2022-10-14T20:06:35.653Z,9.50
2022-10-14T20:09:03.947Z,8.73
2022-10-14T20:11:32.106Z,8.67
2022-10-14T20:14:00.133Z,8.37
2022-10-14T20:16:29.560Z,8.30
2022-10-14T20:18:57.655Z,7.80
2022-10-14T20:21:26.357Z,8.90
2022-10-14T20:23:54.172Z,8.60
2022-10-14T20:26:23.094Z,8.40
2022-10-14T20:28:51.747Z,8.70
2022-10-14T20:31:21.872Z,8.70
2022-10-14T20:33:51.054Z,9.30
2022-10-14T20:36:21.017Z,9.30
2022-10-14T20:38:49.263Z,8.20
2022-10-14T20:41:19.669Z,9.10
2022-10-14T20:43:47.891Z,9.47
2022-10-14T20:46:15.884Z,11.30
2022-10-14T20:48:44.233Z,10.80
2022-10-14T20:51:15.411Z,9.57
2022-10-14T20:53:43.319Z,8.80
2022-10-14T20:56:12.708Z,8.60
2022-10-14T20:58:40.713Z,8.87
2022-10-14T21:01:10.048Z,9.57
2022-10-14T21:03:38.188Z,8.13
2022-10-14T21:06:08.142Z,8.53
2022-10-14T21:08:37.650Z,8.07
2022-10-14T21:11:10.496Z,8.43
2022-10-14T21:13:44.012Z,8.07
2022-10-14T21:16:17.095Z,7.90
2022-10-14T21:18:49.122Z,8.23
2022-10-14T21:21:18.586Z,7.63
2022-10-14T21:23:47.775Z,7.53
2022-10-14T21:26:15.864Z,7.43
2022-10-14T21:28:44.226Z,7.80
2022-10-14T21:31:17.396Z,7.27
2022-10-14T21:33:47.187Z,7.43
2022-10-14T21:36:16.884Z,7.70
2022-10-14T21:38:45.119Z,7.13
2022-10-14T21:41:14.476Z,7.33
2022-10-14T21:43:42.619Z,6.63
2022-10-14T21:46:12.142Z,7.37
2022-10-14T21:48:40.815Z,7.87
2022-10-14T21:51:10.356Z,7.97
2022-10-14T21:53:39.289Z,8.07
2022-10-14T21:56:08.111Z,7.70
2022-10-14T21:58:37.681Z,8.00
2022-10-14T22:01:07.544Z,7.67
2022-10-14T22:03:36.682Z,8.50
2022-10-14T22:06:06.639Z,7.50
2022-10-14T22:08:37.606Z,8.17
2022-10-14T22:11:06.203Z,7.73
2022-10-14T22:13:35.178Z,7.80
2022-10-14T22:16:04.282Z,8.93
2022-10-14T22:18:32.554Z,8.23
2022-10-14T22:21:03.861Z,8.37
2022-10-14T22:23:31.836Z,8.13
2022-10-14T22:26:01.985Z,9.20
2022-10-14T22:28:30.988Z,8.67
2022-10-14T22:31:06.790Z,8.60
2022-10-14T22:33:36.156Z,9.27
2022-10-14T22:36:08.861Z,8.40
2022-10-14T22:38:37.430Z,7.90
2022-10-14T22:41:06.610Z,8.60
2022-10-14T22:43:34.983Z,8.57
2022-10-14T22:46:04.152Z,9.20
2022-10-14T22:48:33.440Z,8.10
2022-10-14T22:51:03.642Z,8.23
2022-10-14T22:53:31.482Z,7.90
2022-10-14T22:55:59.662Z,8.50
2022-10-14T22:58:27.535Z,8.27
2022-10-14T23:00:55.348Z,9.13
2022-10-14T23:03:23.525Z,7.53
2022-10-14T23:05:52.684Z,8.50
2022-10-14T23:08:21.171Z,7.40
2022-10-14T23:10:49.289Z,7.93
2022-10-14T23:13:17.076Z,8.20
2022-10-14T23:15:44.844Z,8.20
2022-10-14T23:18:12.596Z,7.40
2022-10-14T23:20:40.328Z,7.47
2022-10-14T23:23:09.547Z,7.13
2022-10-14T23:25:40.944Z,7.83
2022-10-14T23:28:08.806Z,6.93
2022-10-14T23:30:37.377Z,7.27
2022-10-14T23:33:05.825Z,8.17
2022-10-14T23:35:36.471Z,7.57
2022-10-14T23:38:04.632Z,7.17
2022-10-14T23:40:34.056Z,7.40
2022-10-14T23:43:01.995Z,8.10
2022-10-14T23:45:29.965Z,8.23
2022-10-14T23:47:57.718Z,7.73
2022-10-14T23:50:25.662Z,7.80
2022-10-14T23:52:53.404Z,7.43
2022-10-14T23:55:21.159Z,8.30
2022-10-14T23:57:50.286Z,8.03
